Billsburg, South Dakota
Current Conditions -  °F | °C
As of 4:55 AM on Tuesday 27 Jan 2015 (Local Time) from KPHP Reporting Station
Clear Clear  
Wind Chill: 29°   Ceiling: Unl
Heat Index: 29°   Visibility: 10mi
Dew Point: 25°   Wind: 3mph
Humidity: 85%   Direction: 270°W
Pressure: 29.93"   Gusts: NA
Location:  44.4194°N, 101.806°W
Report Text: KPHP 271155Z AUTO 27003KT 10SM CLR M02/M04 A2993 RMK AO2 SLP143 T10171039 11006 21028 56007
Loading
Personal Weather Stations






























Interactive Weather Map New forecast layout! Learn more

10-Day Weather Forecast

Advertisements
Track Severe Weather on mobile